ADDS METAR Data INFO
IDs: Format: Raw Decoded Include TAF

Data at: 0143 UTC 17 Oct 2017

KVGT 170053Z AUTO 00000KT 10SM CLR 27/M17 A3012 RMK AO2 SLP204 T02721167
KVGT 162353Z AUTO 00000KT 10SM CLR 28/M17 A3014 RMK AO2 SLP207 T02781167 10283 20228 56014
KVGT 162253Z AUTO 17004KT 10SM CLR 28/M17 A3015 RMK AO2 SLP211 T02781167
KVGT 162153Z AUTO 00000KT 10SM CLR 27/M16 A3016 RMK AO2 SLP216 T02721161
KVGT 162053Z AUTO 00000KT 10SM CLR 27/M16 A3018 RMK AO2 SLP223 T02721156 58027
KVGT 161953Z AUTO 00000KT 10SM CLR 25/M15 A3021 RMK AO2 SLP234 T02501150
KVGT 161853Z AUTO 00000KT 10SM CLR 24/M14 A3024 RMK AO2 SLP246 T02391139
KVGT 161753Z AUTO 36005KT 10SM CLR 23/M15 A3027 RMK AO2 SLP254 T02331150 10233 20122 50001
KVGT 161653Z AUTO 34004KT 10SM CLR 21/M14 A3028 RMK AO2 SLP259 T02061139
KVGT 161553Z AUTO 32005KT 10SM CLR 18/M08 A3028 RMK AO2 SLP261 T01781083
KVGT 161453Z AUTO 00000KT 10SM CLR 14/M09 A3026 RMK AO2 SLP256 T01441094 53012
KVGT 161353Z AUTO 30008KT 10SM CLR 12/M13 A3025 RMK AO2 SLP250 T01221133
KVGT 161253Z AUTO 30008KT 10SM CLR 13/M11 A3024 RMK AO2 SLP245 T01331111
KVGT 161153Z AUTO 32004KT 10SM CLR 14/M14 A3023 RMK AO2 SLP240 T01391144 10167 20133 55003
KVGT 161053Z AUTO 30007KT 10SM CLR 14/M14 A3022 RMK AO2 SLP240 T01441139
KVGT 160953Z AUTO 31006KT 10SM CLR 14/M11 A3024 RMK AO2 SLP244 T01391111
KVGT 160853Z AUTO 31007KT 10SM CLR 14/M09 A3024 RMK AO2 SLP244 T01441094 53000
KVGT 160753Z AUTO 26003KT 10SM CLR 16/M10 A3023 RMK AO2 SLP243 T01561100 402560117
KVGT 160653Z AUTO 30007KT 10SM CLR 16/M11 A3023 RMK AO2 SLP243 T01561106
KVGT 160553Z AUTO 31008KT 10SM CLR 16/M07 A3023 RMK AO2 SLP246 T01561072 10250 20150 50003
KVGT 160453Z AUTO 34004KT 10SM CLR 16/M08 A3024 RMK AO2 SLP247 T01611078
KVGT 160353Z AUTO 32007KT 10SM CLR 18/M09 A3023 RMK AO2 SLP245 T01781094
KVGT 160253Z AUTO 29004KT 10SM CLR 20/M07 A3023 RMK AO2 SLP244 T02001072 53004
KVGT 160153Z AUTO 27004KT 10SM CLR 23/M11 A3021 RMK AO2 SLP238 T02281111
KVGT 160053Z AUTO 00000KT 10SM CLR 24/M15 A3020 RMK AO2 SLP234 T02441150
KVGT 152353Z AUTO 19003KT 10SM CLR 25/M16 A3021 RMK AO2 SLP237 T02501156 10256 20194 56018
KVGT 152253Z AUTO 18004KT 10SM CLR 24/M16 A3023 RMK AO2 SLP242 T02441156
KVGT 152153Z AUTO 00000KT 10SM CLR 24/M16 A3024 RMK AO2 SLP247 T02391161
KVGT 152053Z AUTO 25003KT 10SM CLR 23/M16 A3027 RMK AO2 SLP255 T02331161 58026
KVGT 151953Z AUTO 00000KT 10SM CLR 22/M16 A3030 RMK AO2 SLP267 T02221161
KVGT 151853Z AUTO 23003KT 10SM CLR 22/M17 A3033 RMK AO2 SLP277 T02171167
KVGT 151753Z AUTO 33003KT 10SM CLR 20/M17 A3035 RMK AO2 SLP284 T02001167 10200 20117 50003
KVGT 151653Z AUTO 34007KT 10SM CLR 19/M16 A3036 RMK AO2 SLP288 T01891161
KVGT 151553Z AUTO 33009KT 10SM CLR 17/M15 A3036 RMK AO2 SLP287 T01671150
KVGT 151453Z AUTO 33007KT 10SM CLR 13/M13 A3034 RMK AO2 SLP283 T01281128 53015
KVGT 151353Z AUTO 33008KT 10SM CLR 12/M17 A3032 RMK AO2 SLP274 T01221172